LICB Airport Information

Runway Information
Runway 05 Length 8070 ft width 148 ft
Elevation 0 ft Threshold 0 ft Heading 0
Runway 23 Length 8070 ft Width 148 ft
Elevation 0 ft Threshold 0 ft Heading 0
Airport Frequencies
Airport Navaids
Airport Weather Information & NOTAM
ADDS - METARS form results

(2031 UTC 20 April 2019)
Data provider http://aviationweather.gov/metar/data/
 
METAR text: LICB 201950Z 05011KT 360V090 CAVOK 14/05 Q1020
Conditions at: LICB (COMISO , IT) observed 1950 UTC 20 April 2019
Temperature: 14.0°C (57°F)
Dewpoint: 5.0°C (41°F) [RH = 55%]
Pressure (altimeter): 30.12 inches Hg (1020.0 mb)
Winds: from the NE (50 degrees) at 13 MPH (11 knots; 5.7 m/s)
Visibility: 6 or more miles (10+ km)
Ceiling: ceiling and visibility are OK
Clouds: unknown
Weather: no significant weather observed at this time

Forecast for: LICB (COMISO , IT)
Text: TAF LICB 201700Z 2018/2103 10015G30KT CAVOK
Forecast period: 1800 UTC 20 April 2019 to 0300 UTC 21 April 2019
Forecast type: FROM: standard forecast or significant change
Winds: from the E (100 degrees) at 17 MPH (15 knots; 7.7 m/s)
gusting to 34 MPH (30 knots; 15.4 m/s)
Visibility: 6 or more miles 10+ km)
Ceiling: unknown
Clouds: missing
Weather: NSW  (no significant weather)